W. O. Watson — WDE2805 — position and weather

sailwx.info

Track history (hours):
 
Tides and Currents Weather Stations Pressure Air Temp Water Temp Dewpoint Dewpoint Depression Visibility Wind Speed Wind Dir Waves Ship Positions

W. O. Watson

Owner: Martin Operating Partnership,LP, Vidor, TX. More information available from US FCC via Universal Licensing System and Coast Guard Vessel Documentation Center.

Last reported at 2015-Feb-27 21:33 UTC. Time now 2015-Mar-03 03:09 UTC.
Position N 29°29' W 094°52'.

Length 32 m; draft 2.8 m.

MMSI: 367329860.

Date/timePositionNaut miles runAvg speedWind from/ knotsBaromVisibWave heightAir tempDewpointWater temp
2015-Feb-27 21:33N 29°29' W 094°52'5 4.8
2015-Feb-27 20:33N 29°33' W 094°55'5 5.2
2015-Feb-27 19:33N 29°38' W 094°58'5 5.0
2015-Feb-27 18:33N 29°42' W 095°01'2 1.9
2015-Feb-27 17:33N 29°44' W 095°01'0 0.2
2015-Feb-27 16:33N 29°44' W 095°01'0 0.0
2015-Feb-27 15:33N 29°44' W 095°01'0 0.0
2015-Feb-27 14:33N 29°44' W 095°01'0 0.0
2015-Feb-27 11:25N 29°44' W 095°01'0 0.0
2015-Feb-27 10:30N 29°44' W 095°01'0 0.0
2015-Feb-27 09:31N 29°44' W 095°01'0 0.0
2015-Feb-27 08:33N 29°44' W 095°01'0 0.0
2015-Feb-27 07:33N 29°44' W 095°01'0 0.0
2015-Feb-27 06:33N 29°44' W 095°01'0 0.0
2015-Feb-27 05:33N 29°44' W 095°01'0 0.0
2015-Feb-27 04:32N 29°44' W 095°01'0 0.0
2015-Feb-27 03:33N 29°44' W 095°01'0 0.0
2015-Feb-27 02:33N 29°44' W 095°01'0 0.0
2015-Feb-27 01:33N 29°44' W 095°01'0 0.0
2015-Feb-27 00:33N 29°44' W 095°01'0 0.0
2015-Feb-26 23:33N 29°44' W 095°01'0 0.0
2015-Feb-26 22:33N 29°44' W 095°01'0 0.0
2015-Feb-26 21:33N 29°44' W 095°01'0 0.0
2015-Feb-26 20:33N 29°44' W 095°01'0 0.0
2015-Feb-26 19:32N 29°44' W 095°01'0 0.0
2015-Feb-26 18:33N 29°44' W 095°01'0 0.0
2015-Feb-26 17:33N 29°44' W 095°01'0 0.0
2015-Feb-26 16:32N 29°44' W 095°01'0 0.0
2015-Feb-26 15:33N 29°44' W 095°01'0 0.0
2015-Feb-26 14:33N 29°44' W 095°01'0 0.0
2015-Feb-26 13:32N 29°44' W 095°01'0 0.0
2015-Feb-26 12:25N 29°44' W 095°01'0 0.0
2015-Feb-26 11:25N 29°44' W 095°01'0 0.0
2015-Feb-26 10:30N 29°44' W 095°01'0 0.0
2015-Feb-26 09:33N 29°44' W 095°01'0 0.0
2015-Feb-26 08:33N 29°44' W 095°01'0 0.0
2015-Feb-26 07:33N 29°44' W 095°01'0 0.0
2015-Feb-26 06:33N 29°44' W 095°01'0 0.0
2015-Feb-26 05:33N 29°44' W 095°01'0 0.1
2015-Feb-26 04:33N 29°44' W 095°01'0 0.1
2015-Feb-26 03:33N 29°44' W 095°01'0 0.0
2015-Feb-26 02:33N 29°44' W 095°01'0 0.3
2015-Feb-26 01:33N 29°44' W 095°02'4 3.8
2015-Feb-26 00:32N 29°47' W 095°05'0 0.0
2015-Feb-25 23:33N 29°47' W 095°05'0 0.0
2015-Feb-25 22:33N 29°47' W 095°05'0 0.0
2015-Feb-25 21:33N 29°47' W 095°05'0 0.0
2015-Feb-25 20:33N 29°47' W 095°05'0 0.0
2015-Feb-25 19:33N 29°47' W 095°05'0 0.0
2015-Feb-25 18:33N 29°47' W 095°05'0 0.0
2015-Feb-25 17:32N 29°47' W 095°05'0 0.0
2015-Feb-25 16:26N 29°47' W 095°05'0 0.0
2015-Feb-25 15:33N 29°47' W 095°05'2 1.9
2015-Feb-25 14:33N 29°45' W 095°04'2 2.4
2015-Feb-25 13:33N 29°44' W 095°01'0 0.1
2015-Feb-25 12:33N 29°44' W 095°01'0 0.0
2015-Feb-25 11:33N 29°44' W 095°01'0 0.0
2015-Feb-25 10:33N 29°44' W 095°01'0 0.0
2015-Feb-25 09:33N 29°44' W 095°01'0 0.2
2015-Feb-25 08:33N 29°44' W 095°01'0 0.0
2015-Feb-25 07:33N 29°44' W 095°01'0 0.2
2015-Feb-25 06:33N 29°44' W 095°01'0 0.0
2015-Feb-25 05:33N 29°44' W 095°01'0 0.0
2015-Feb-25 04:33N 29°44' W 095°01'0 0.0
2015-Feb-25 03:33N 29°44' W 095°01'0 0.0
2015-Feb-25 02:33N 29°44' W 095°01'0 0.1
2015-Feb-25 01:33N 29°44' W 095°01'0 0.1
2015-Feb-25 00:33N 29°44' W 095°01'7 6.5
2015-Feb-24 23:33N 29°38' W 094°58'6 6.2
2015-Feb-24 22:33N 29°33' W 094°54'6 6.4
2015-Feb-24 21:33N 29°27' W 094°51'  
2015-Feb-19 02:13N 29°23' W 094°46'8 0.3
2015-Feb-18 03:22N 29°29' W 094°52'5 6.4
2015-Feb-18 02:33N 29°33' W 094°55'6 6.4
2015-Feb-18 01:33N 29°39' W 094°58'6 6.0
2015-Feb-18 00:33N 29°44' W 095°03'3 3.0
2015-Feb-17 23:33N 29°46' W 095°05'0 0.0
2015-Feb-17 22:33N 29°46' W 095°05'  
Track history (hours):
 
Tides and Currents Weather Stations Pressure Air Temp Water Temp Dewpoint Dewpoint Depression Visibility Wind Speed Wind Dir Waves Ship Positions

W. O. Watson

Owner: Martin Operating Partnership,LP, Vidor, TX. More information available from US FCC via Universal Licensing System and Coast Guard Vessel Documentation Center.

Last reported at 2015-Feb-27 21:33 UTC. Time now 2015-Mar-03 03:09 UTC.
Position N 29°29' W 094°52'.

Length 32 m; draft 2.8 m.

MMSI: 367329860.

Date/timePositionNaut miles runAvg speedWind from/ knotsBaromVisibWave heightAir tempDewpointWater temp
2015-Feb-27 21:33N 29°29' W 094°52'5 4.8
2015-Feb-27 20:33N 29°33' W 094°55'5 5.2
2015-Feb-27 19:33N 29°38' W 094°58'5 5.0
2015-Feb-27 18:33N 29°42' W 095°01'2 1.9
2015-Feb-27 17:33N 29°44' W 095°01'0 0.2
2015-Feb-27 16:33N 29°44' W 095°01'0 0.0
2015-Feb-27 15:33N 29°44' W 095°01'0 0.0
2015-Feb-27 14:33N 29°44' W 095°01'0 0.0
2015-Feb-27 11:25N 29°44' W 095°01'0 0.0
2015-Feb-27 10:30N 29°44' W 095°01'0 0.0
2015-Feb-27 09:31N 29°44' W 095°01'0 0.0
2015-Feb-27 08:33N 29°44' W 095°01'0 0.0
2015-Feb-27 07:33N 29°44' W 095°01'0 0.0
2015-Feb-27 06:33N 29°44' W 095°01'0 0.0
2015-Feb-27 05:33N 29°44' W 095°01'0 0.0
2015-Feb-27 04:32N 29°44' W 095°01'0 0.0
2015-Feb-27 03:33N 29°44' W 095°01'0 0.0
2015-Feb-27 02:33N 29°44' W 095°01'0 0.0
2015-Feb-27 01:33N 29°44' W 095°01'0 0.0
2015-Feb-27 00:33N 29°44' W 095°01'0 0.0
2015-Feb-26 23:33N 29°44' W 095°01'0 0.0
2015-Feb-26 22:33N 29°44' W 095°01'0 0.0
2015-Feb-26 21:33N 29°44' W 095°01'0 0.0
2015-Feb-26 20:33N 29°44' W 095°01'0 0.0
2015-Feb-26 19:32N 29°44' W 095°01'0 0.0
2015-Feb-26 18:33N 29°44' W 095°01'0 0.0
2015-Feb-26 17:33N 29°44' W 095°01'0 0.0
2015-Feb-26 16:32N 29°44' W 095°01'0 0.0
2015-Feb-26 15:33N 29°44' W 095°01'0 0.0
2015-Feb-26 14:33N 29°44' W 095°01'0 0.0
2015-Feb-26 13:32N 29°44' W 095°01'0 0.0
2015-Feb-26 12:25N 29°44' W 095°01'0 0.0
2015-Feb-26 11:25N 29°44' W 095°01'0 0.0
2015-Feb-26 10:30N 29°44' W 095°01'0 0.0
2015-Feb-26 09:33N 29°44' W 095°01'0 0.0
2015-Feb-26 08:33N 29°44' W 095°01'0 0.0
2015-Feb-26 07:33N 29°44' W 095°01'0 0.0
2015-Feb-26 06:33N 29°44' W 095°01'0 0.0
2015-Feb-26 05:33N 29°44' W 095°01'0 0.1
2015-Feb-26 04:33N 29°44' W 095°01'0 0.1
2015-Feb-26 03:33N 29°44' W 095°01'0 0.0
2015-Feb-26 02:33N 29°44' W 095°01'0 0.3
2015-Feb-26 01:33N 29°44' W 095°02'4 3.8
2015-Feb-26 00:32N 29°47' W 095°05'0 0.0
2015-Feb-25 23:33N 29°47' W 095°05'0 0.0
2015-Feb-25 22:33N 29°47' W 095°05'0 0.0
2015-Feb-25 21:33N 29°47' W 095°05'0 0.0
2015-Feb-25 20:33N 29°47' W 095°05'0 0.0
2015-Feb-25 19:33N 29°47' W 095°05'0 0.0
2015-Feb-25 18:33N 29°47' W 095°05'0 0.0
2015-Feb-25 17:32N 29°47' W 095°05'0 0.0
2015-Feb-25 16:26N 29°47' W 095°05'0 0.0
2015-Feb-25 15:33N 29°47' W 095°05'2 1.9
2015-Feb-25 14:33N 29°45' W 095°04'2 2.4
2015-Feb-25 13:33N 29°44' W 095°01'0 0.1
2015-Feb-25 12:33N 29°44' W 095°01'0 0.0
2015-Feb-25 11:33N 29°44' W 095°01'0 0.0
2015-Feb-25 10:33N 29°44' W 095°01'0 0.0
2015-Feb-25 09:33N 29°44' W 095°01'0 0.2
2015-Feb-25 08:33N 29°44' W 095°01'0 0.0
2015-Feb-25 07:33N 29°44' W 095°01'0 0.2
2015-Feb-25 06:33N 29°44' W 095°01'0 0.0
2015-Feb-25 05:33N 29°44' W 095°01'0 0.0
2015-Feb-25 04:33N 29°44' W 095°01'0 0.0
2015-Feb-25 03:33N 29°44' W 095°01'0 0.0
2015-Feb-25 02:33N 29°44' W 095°01'0 0.1
2015-Feb-25 01:33N 29°44' W 095°01'0 0.1
2015-Feb-25 00:33N 29°44' W 095°01'7 6.5
2015-Feb-24 23:33N 29°38' W 094°58'6 6.2
2015-Feb-24 22:33N 29°33' W 094°54'6 6.4
2015-Feb-24 21:33N 29°27' W 094°51'  
2015-Feb-19 02:13N 29°23' W 094°46'8 0.3
2015-Feb-18 03:22N 29°29' W 094°52'5 6.4
2015-Feb-18 02:33N 29°33' W 094°55'6 6.4
2015-Feb-18 01:33N 29°39' W 094°58'6 6.0
2015-Feb-18 00:33N 29°44' W 095°03'3 3.0
2015-Feb-17 23:33N 29°46' W 095°05'0 0.0
2015-Feb-17 22:33N 29°46' W 095°05'  

Dump ship's entire track history